Time;durP1;ratioP1;P1;durP2;ratioP2;P2;SDS_P1;SDS_P2;PMS_P1;PMS_P2;Temp;Humidity;BMP_temperature;BMP_pressure;BME280_temperature;BME280_humidity;BME280_pressure;Samples;Min_cycle;Max_cycle;Signal;HPM_P1;HPM_P2
2022/08/17 00:33:41;;;;;;;27.00;18.65;;;;;;;21.38;99.60;100916.56;20947717;28;20629;-60
2022/08/17 00:44:04;;;;;;;28.73;19.58;;;;;;;21.28;99.36;100926.50;20939916;28;20047;-61
2022/08/17 00:54:33;;;;;;;26.85;20.50;;;;;;;21.26;99.32;100911.75;20951965;28;20052;-61
2022/08/17 01:05:06;;;;;;;28.48;21.10;;;;;;;21.40;97.33;100911.91;20949447;28;20087;-61
2022/08/17 01:15:33;;;;;;;30.27;20.98;;;;;;;21.12;99.27;100913.22;20949422;28;20044;-60
2022/08/17 01:25:57;;;;;;;37.42;23.20;;;;;;;21.00;100.00;100913.72;20957514;28;20684;-63
2022/08/17 01:36:19;;;;;;;32.00;24.50;;;;;;;20.98;100.00;100905.91;20942465;28;20049;-61
2022/08/17 01:46:41;;;;;;;34.80;24.27;;;;;;;20.93;100.00;100900.28;20956034;28;20671;-61
2022/08/17 01:57:03;;;;;;;34.50;24.73;;;;;;;20.76;100.00;100887.09;20966484;28;20067;-60
2022/08/17 02:07:24;;;;;;;34.72;24.52;;;;;;;20.63;100.00;100884.94;20961449;28;20051;-62
2022/08/17 02:17:47;;;;;;;37.17;24.77;;;;;;;20.73;100.00;100882.16;20960692;28;20473;-60
2022/08/17 02:28:16;;;;;;;38.22;25.15;;;;;;;20.72;100.00;100870.69;20961282;28;20127;-62
2022/08/17 02:38:39;;;;;;;42.05;24.27;;;;;;;20.69;100.00;100875.50;20960714;28;20488;-60
2022/08/17 02:49:01;;;;;;;31.90;22.83;;;;;;;20.58;100.00;100871.31;20958394;28;20047;-60
2022/08/17 02:59:23;;;;;;;38.38;26.25;;;;;;;20.43;100.00;100872.94;20956571;28;20063;-61
2022/08/17 03:09:44;;;;;;;35.65;25.48;;;;;;;20.41;100.00;100872.25;20952143;28;20053;-62
2022/08/17 03:20:07;;;;;;;39.63;27.95;;;;;;;20.53;100.00;100870.16;20955878;28;20051;-63
2022/08/17 03:30:29;;;;;;;43.13;30.80;;;;;;;20.36;100.00;100864.97;20972338;28;20048;-62
2022/08/17 03:40:52;;;;;;;49.65;30.50;;;;;;;20.44;100.00;100866.66;20957064;28;20044;-63
2022/08/17 04:02:10;;;;;;;46.00;29.65;;;;;;;20.06;100.00;100886.69;20967925;28;20044;-62
2022/08/17 04:12:48;;;;;;;37.50;26.60;;;;;;;20.27;100.00;100890.59;20943294;28;20056;-63
2022/08/17 04:23:16;;;;;;;41.83;28.35;;;;;;;20.23;100.00;100888.44;20952138;28;20052;-62
2022/08/17 04:33:42;;;;;;;41.22;28.05;;;;;;;20.31;100.00;100891.09;20950767;28;20072;-62
2022/08/17 04:44:04;;;;;;;37.40;26.45;;;;;;;20.24;100.00;100896.19;20950966;28;20377;-62
2022/08/17 04:54:26;;;;;;;38.03;25.20;;;;;;;19.88;100.00;100907.88;20953454;28;20049;-63
2022/08/17 05:04:47;;;;;;;35.10;24.23;;;;;;;19.80;100.00;100918.41;20940481;28;20420;-62
2022/08/17 05:15:13;;;;;;;28.95;21.85;;;;;;;19.84;100.00;100921.56;20951045;28;20040;-62
2022/08/17 05:25:38;;;;;;;28.60;20.67;;;;;;;19.72;100.00;100933.41;20959157;28;20421;-62
2022/08/17 05:36:03;;;;;;;28.65;20.38;;;;;;;20.02;100.00;100927.69;20967055;28;20051;-62
2022/08/17 05:46:27;;;;;;;28.58;20.90;;;;;;;19.83;100.00;100927.84;20965297;28;20053;-62
2022/08/17 05:56:52;;;;;;;26.38;18.65;;;;;;;19.99;100.00;100917.41;20963936;28;20045;-62
2022/08/17 06:07:24;;;;;;;21.25;16.33;;;;;;;19.98;100.00;100921.03;20971704;28;20135;-62
2022/08/17 06:17:46;;;;;;;20.25;16.02;;;;;;;19.81;100.00;100922.72;20962818;28;20040;-64
2022/08/17 06:28:13;;;;;;;19.95;15.98;;;;;;;19.82;100.00;100926.19;20965715;28;20123;-64
2022/08/17 06:38:46;;;;;;;23.10;17.17;;;;;;;20.08;100.00;100933.19;20962712;28;20048;-62
2022/08/17 06:49:20;;;;;;;27.85;20.38;;;;;;;20.31;100.00;100939.59;20959980;28;20045;-63
2022/08/17 06:59:51;;;;;;;28.88;20.52;;;;;;;20.65;100.00;100933.31;20961629;28;20535;-63
2022/08/17 07:10:19;;;;;;;30.30;22.88;;;;;;;20.94;100.00;100922.28;20958461;28;20425;-62
2022/08/17 07:20:46;;;;;;;32.75;23.95;;;;;;;21.17;99.34;100923.34;20960562;28;20049;-63
2022/08/17 07:31:12;;;;;;;34.05;23.90;;;;;;;21.48;99.61;100927.84;20972209;28;20037;-63
2022/08/17 07:41:38;;;;;;;31.73;23.95;;;;;;;21.66;98.18;100942.63;20961285;28;20052;-63
2022/08/17 07:52:32;;;;;;;29.73;21.83;;;;;;;21.83;97.06;100943.47;20958001;28;20524;-64
2022/08/17 08:03:21;;;;;;;26.00;21.08;;;;;;;21.99;96.10;100980.56;20958461;28;20057;-64
2022/08/17 08:13:48;;;;;;;28.08;20.50;;;;;;;22.25;94.78;100970.59;20951299;28;20134;-67
2022/08/17 08:24:39;;;;;;;28.67;22.27;;;;;;;22.39;94.17;100978.72;20982976;28;20139;-64
2022/08/17 08:35:12;;;;;;;30.27;21.90;;;;;;;22.38;92.10;100981.56;20952977;28;20059;-64
2022/08/17 08:45:55;;;;;;;25.00;19.58;;;;;;;22.94;90.53;100972.34;20951670;28;20051;-65
2022/08/17 08:56:28;;;;;;;25.95;18.52;;;;;;;23.03;90.10;100976.59;20954322;28;20056;-65
2022/08/17 09:07:15;;;;;;;24.55;18.60;;;;;;;23.27;88.71;100981.84;20966721;28;20052;-64
2022/08/17 09:17:56;;;;;;;24.65;16.27;;;;;;;23.78;86.05;100973.13;20946819;28;20044;-64
2022/08/17 09:28:43;;;;;;;22.35;17.65;;;;;;;23.98;85.38;100972.44;20968626;28;20037;-64
2022/08/17 09:39:11;;;;;;;21.85;15.68;;;;;;;24.37;83.18;100963.22;20949961;28;20424;-65
2022/08/17 09:49:41;;;;;;;22.25;16.48;;;;;;;24.25;82.43;100963.84;20950262;28;20049;-64
2022/08/17 10:00:28;;;;;;;17.10;13.88;;;;;;;24.66;81.04;100968.56;20933125;28;20050;-63
2022/08/17 10:11:12;;;;;;;24.02;15.48;;;;;;;24.93;81.29;100972.41;20973453;28;20032;-63
2022/08/17 10:32:38;;;;;;;18.90;15.05;;;;;;;25.61;76.86;100970.91;20957331;28;20049;-64
2022/08/17 10:43:21;;;;;;;23.27;15.43;;;;;;;25.90;75.93;100965.44;20959964;28;20040;-63
2022/08/17 10:53:44;;;;;;;18.95;12.80;;;;;;;26.01;74.91;100962.22;20960482;28;20076;-63
2022/08/17 11:04:26;;;;;;;13.75;9.60;;;;;;;26.06;75.27;100959.75;20959949;28;20047;-63
2022/08/17 11:15:03;;;;;;;12.68;9.50;;;;;;;26.28;72.78;100942.66;20946637;28;20754;-63
2022/08/17 11:25:39;;;;;;;18.23;12.43;;;;;;;26.69;73.87;100941.66;20955574;28;20048;-64
2022/08/17 11:36:13;;;;;;;16.15;11.07;;;;;;;26.94;72.76;100934.75;20958305;28;20051;-62
2022/08/17 11:57:39;;;;;;;11.27;8.18;;;;;;;27.63;68.80;100919.03;20957796;28;20131;-63
2022/08/17 12:08:18;;;;;;;9.68;7.80;;;;;;;27.30;69.79;100909.31;20986863;28;20178;-64
2022/08/17 12:18:52;;;;;;;10.48;7.55;;;;;;;27.63;66.34;100904.81;20953685;28;20519;-64
2022/08/17 12:29:16;;;;;;;9.15;7.28;;;;;;;27.94;65.71;100900.47;20950799;28;20037;-64
2022/08/17 12:40:02;;;;;;;7.85;6.97;;;;;;;27.68;64.84;100894.31;20952853;28;20049;-63
2022/08/17 12:50:24;;;;;;;11.57;6.43;;;;;;;27.59;67.35;100888.31;20954586;28;20442;-63
2022/08/17 13:00:58;;;;;;;6.97;5.95;;;;;;;27.74;66.16;100877.41;20944071;28;20064;-63
2022/08/17 13:11:23;;;;;;;8.23;6.50;;;;;;;27.72;65.57;100866.06;20949067;28;20053;-63
2022/08/17 13:21:57;;;;;;;8.90;6.97;;;;;;;27.66;64.47;100861.53;20935260;28;20715;-63
2022/08/17 13:32:30;;;;;;;14.02;6.20;;;;;;;27.83;65.66;100854.72;20937343;28;20040;-63
2022/08/17 13:42:55;;;;;;;12.98;7.13;;;;;;;27.91;68.54;100854.50;20952276;28;20064;-63
2022/08/17 13:53:22;;;;;;;18.38;9.48;;;;;;;27.92;73.24;100850.78;20956190;28;20069;-64
2022/08/17 14:03:44;;;;;;;16.60;8.95;;;;;;;27.66;75.75;100850.81;20955410;28;20579;-64
2022/08/17 14:14:13;;;;;;;12.18;8.25;;;;;;;27.18;77.50;100846.69;20943050;28;20536;-65
2022/08/17 14:24:39;;;;;;;12.13;8.63;;;;;;;27.50;76.77;100837.84;20932103;28;20062;-65
2022/08/17 14:35:07;;;;;;;8.43;4.57;;;;;;;27.28;71.10;100814.97;20957433;28;20515;-65
2022/08/17 14:45:30;;;;;;;6.32;4.10;;;;;;;27.02;67.67;100766.75;20952212;28;20234;-65
2022/08/17 14:55:53;;;;;;;6.88;3.95;;;;;;;26.67;67.14;100799.22;20937955;28;20064;-64
2022/08/17 15:06:16;;;;;;;3.53;2.85;;;;;;;26.15;65.28;100867.72;20956001;28;21122;-63
2022/08/17 15:16:37;;;;;;;10.68;4.20;;;;;;;24.03;86.42;100947.91;20941192;28;20680;-64
2022/08/17 15:26:59;;;;;;;8.82;3.40;;;;;;;22.29;98.25;100866.47;20935485;28;20584;-66
2022/08/17 15:37:21;;;;;;;6.78;3.80;;;;;;;22.01;100.00;100859.09;20931079;28;20044;-65
2022/08/17 15:47:42;;;;;;;5.38;2.88;;;;;;;21.92;99.89;100860.13;20937069;28;20071;-65
2022/08/17 15:58:05;;;;;;;9.10;4.30;;;;;;;21.83;100.00;100863.81;20939466;28;20519;-67
2022/08/17 16:08:27;;;;;;;8.77;5.68;;;;;;;22.09;100.00;100833.34;20920027;28;20049;-64
2022/08/17 16:18:49;;;;;;;8.02;6.85;;;;;;;21.99;100.00;100794.69;20939337;28;20059;-63
2022/08/17 16:29:16;;;;;;;10.02;7.78;;;;;;;22.21;100.00;100792.09;20939369;28;20109;-63
2022/08/17 16:39:38;;;;;;;12.38;7.60;;;;;;;22.17;100.00;100789.97;20951191;28;20883;-64
2022/08/17 16:50:02;;;;;;;12.60;9.32;;;;;;;22.05;100.00;100794.03;20931291;28;20040;-64
2022/08/17 17:00:24;;;;;;;11.70;9.65;;;;;;;22.27;100.00;100815.34;20930659;28;20053;-64
2022/08/17 17:10:49;;;;;;;11.60;9.52;;;;;;;22.22;100.00;100803.56;20953933;28;20043;-64
2022/08/17 17:21:24;;;;;;;9.38;7.43;;;;;;;22.09;100.00;100798.81;20946425;28;20047;-64
2022/08/17 17:32:12;;;;;;;7.93;6.47;;;;;;;22.02;100.00;100773.97;20950039;28;20401;-67
2022/08/17 17:42:41;;;;;;;8.07;6.80;;;;;;;21.95;100.00;100788.09;20944401;28;20044;-64
2022/08/17 17:53:24;;;;;;;6.40;5.80;;;;;;;22.32;97.63;100825.44;20977096;28;20037;-64
2022/08/17 18:04:20;;;;;;;11.63;6.88;;;;;;;21.99;100.00;100847.81;20960051;28;20054;-65
2022/08/17 18:14:44;;;;;;;10.63;7.38;;;;;;;21.87;100.00;100846.53;20960682;28;20067;-62
2022/08/17 18:25:43;;;;;;;14.88;8.93;;;;;;;21.89;100.00;100857.81;20951409;28;20045;-63
2022/08/17 18:36:05;;;;;;;11.05;8.50;;;;;;;21.88;100.00;100861.44;20954170;28;20052;-62
2022/08/17 18:46:33;;;;;;;11.80;8.15;;;;;;;21.90;100.00;100846.19;20961906;28;20040;-63
2022/08/17 18:56:59;;;;;;;13.18;8.10;;;;;;;21.82;100.00;100848.88;20963080;28;20043;-63
2022/08/17 19:07:23;;;;;;;10.13;7.95;;;;;;;21.62;100.00;100877.59;20961591;28;21209;-63
2022/08/17 19:17:58;;;;;;;11.32;6.72;;;;;;;21.53;100.00;100883.88;20959989;28;20052;-63
2022/08/17 19:28:35;;;;;;;9.82;6.38;;;;;;;21.32;100.00;100890.69;20959716;28;20778;-63
2022/08/17 19:39:34;;;;;;;12.00;6.18;;;;;;;21.47;100.00;100883.72;20951509;28;20052;-63
2022/08/17 19:50:10;;;;;;;11.00;6.63;;;;;;;21.31;100.00;100889.03;20955961;28;20041;-63
2022/08/17 20:00:38;;;;;;;11.02;6.50;;;;;;;21.22;100.00;100879.44;20952306;28;20049;-65
2022/08/17 20:11:07;;;;;;;13.10;5.97;;;;;;;21.08;100.00;100887.19;20955515;28;20036;-66
2022/08/17 20:21:44;;;;;;;20.50;6.30;;;;;;;21.22;100.00;100879.44;20952098;28;20052;-63
2022/08/17 20:32:21;;;;;;;10.25;5.50;;;;;;;21.15;100.00;100893.50;20935963;28;20040;-63
2022/08/17 20:42:42;;;;;;;11.52;5.43;;;;;;;21.06;100.00;100911.22;20955771;28;20052;-63
2022/08/17 20:53:08;;;;;;;13.48;5.43;;;;;;;20.93;100.00;100905.56;20949519;28;20044;-64
2022/08/17 21:03:30;;;;;;;12.35;5.35;;;;;;;21.14;100.00;100913.06;20946746;28;20520;-63
2022/08/17 21:14:36;;;;;;;13.80;5.32;;;;;;;21.19;100.00;100916.88;20950758;28;20120;-62
2022/08/17 21:25:13;;;;;;;14.30;5.80;;;;;;;21.21;100.00;100912.25;20965028;28;20037;-63
2022/08/17 21:36:16;;;;;;;17.98;5.68;;;;;;;21.14;100.00;100903.28;20947483;28;20048;-62
2022/08/17 21:46:41;;;;;;;17.92;6.22;;;;;;;21.13;100.00;100891.00;20958918;28;20374;-61
2022/08/17 21:57:16;;;;;;;21.55;6.03;;;;;;;21.14;100.00;100902.47;20949345;28;20155;-64
2022/08/17 22:07:46;;;;;;;15.32;5.95;;;;;;;21.00;100.00;100893.31;20955912;28;20044;-61
2022/08/17 22:18:20;;;;;;;17.30;6.28;;;;;;;21.02;100.00;100885.22;20964718;28;20050;-62
2022/08/17 22:28:46;;;;;;;20.55;6.35;;;;;;;20.90;100.00;100891.78;20978923;28;20045;-61
2022/08/17 22:39:07;;;;;;;24.33;6.53;;;;;;;20.90;100.00;100884.69;20960118;28;20048;-61
2022/08/17 22:49:55;;;;;;;21.95;7.40;;;;;;;20.95;100.00;100885.03;20959943;28;20067;-61
2022/08/17 23:00:47;;;;;;;14.95;7.43;;;;;;;20.92;100.00;100889.81;20964218;28;20063;-60
2022/08/17 23:11:09;;;;;;;18.45;7.00;;;;;;;21.02;100.00;100920.50;20953710;28;20401;-61
2022/08/17 23:21:31;;;;;;;12.35;7.15;;;;;;;21.00;100.00;100942.88;20962402;28;20044;-63
2022/08/17 23:32:00;;;;;;;15.23;7.40;;;;;;;20.70;100.00;100940.75;20967671;28;20048;-64
2022/08/17 23:42:21;;;;;;;17.67;9.63;;;;;;;20.30;100.00;100942.41;20974971;28;20055;-63
2022/08/17 23:52:45;;;;;;;20.13;11.82;;;;;;;20.32;100.00;100951.03;20958371;28;20125;-61
